sensor_id;sensor_type;location;lat;lon;timestamp;P1;durP1;ratioP1;P2;durP2;ratioP2
7116;SDS011;3600;48.568;7.870;2022-12-28T00:02:12;8.17;;;7.37;;
7116;SDS011;3600;48.568;7.870;2022-12-28T00:04:38;12.17;;;7.90;;
7116;SDS011;3600;48.568;7.870;2022-12-28T00:07:05;11.83;;;8.47;;
7116;SDS011;3600;48.568;7.870;2022-12-28T00:09:32;10.80;;;8.10;;
7116;SDS011;3600;48.568;7.870;2022-12-28T00:11:59;10.40;;;7.27;;
7116;SDS011;3600;48.568;7.870;2022-12-28T00:14:26;11.30;;;7.57;;
7116;SDS011;3600;48.568;7.870;2022-12-28T00:16:52;12.17;;;7.70;;
7116;SDS011;3600;48.568;7.870;2022-12-28T00:19:19;9.60;;;7.40;;
7116;SDS011;3600;48.568;7.870;2022-12-28T00:21:46;10.27;;;7.57;;
7116;SDS011;3600;48.568;7.870;2022-12-28T00:24:19;8.80;;;6.80;;
7116;SDS011;3600;48.568;7.870;2022-12-28T00:26:47;9.63;;;7.63;;
7116;SDS011;3600;48.568;7.870;2022-12-28T00:29:14;8.43;;;6.73;;
7116;SDS011;3600;48.568;7.870;2022-12-28T00:31:41;7.47;;;6.27;;
7116;SDS011;3600;48.568;7.870;2022-12-28T00:34:10;8.13;;;6.77;;
7116;SDS011;3600;48.568;7.870;2022-12-28T00:36:37;7.10;;;5.80;;
7116;SDS011;3600;48.568;7.870;2022-12-28T00:39:24;8.93;;;7.00;;
7116;SDS011;3600;48.568;7.870;2022-12-28T00:41:51;10.03;;;6.80;;
7116;SDS011;3600;48.568;7.870;2022-12-28T00:44:17;7.30;;;6.60;;
7116;SDS011;3600;48.568;7.870;2022-12-28T00:46:44;7.20;;;6.50;;
7116;SDS011;3600;48.568;7.870;2022-12-28T00:49:11;11.77;;;6.40;;
7116;SDS011;3600;48.568;7.870;2022-12-28T00:51:38;8.80;;;6.10;;
7116;SDS011;3600;48.568;7.870;2022-12-28T00:54:05;6.97;;;6.27;;
7116;SDS011;3600;48.568;7.870;2022-12-28T00:56:31;8.33;;;6.60;;
7116;SDS011;3600;48.568;7.870;2022-12-28T00:58:58;8.23;;;6.57;;
7116;SDS011;3600;48.568;7.870;2022-12-28T01:01:26;9.03;;;7.40;;
7116;SDS011;3600;48.568;7.870;2022-12-28T01:03:56;8.33;;;7.43;;
7116;SDS011;3600;48.568;7.870;2022-12-28T01:06:23;8.97;;;7.00;;
7116;SDS011;3600;48.568;7.870;2022-12-28T01:08:51;9.07;;;6.80;;
7116;SDS011;3600;48.568;7.870;2022-12-28T01:11:19;6.77;;;6.13;;
7116;SDS011;3600;48.568;7.870;2022-12-28T01:13:48;6.20;;;5.60;;
7116;SDS011;3600;48.568;7.870;2022-12-28T01:16:17;8.83;;;6.23;;
7116;SDS011;3600;48.568;7.870;2022-12-28T01:18:53;8.47;;;6.70;;
7116;SDS011;3600;48.568;7.870;2022-12-28T01:21:25;6.93;;;6.33;;
7116;SDS011;3600;48.568;7.870;2022-12-28T01:23:54;6.87;;;6.17;;
7116;SDS011;3600;48.568;7.870;2022-12-28T01:26:23;8.57;;;6.50;;
7116;SDS011;3600;48.568;7.870;2022-12-28T01:28:50;7.20;;;5.60;;
7116;SDS011;3600;48.568;7.870;2022-12-28T01:31:17;7.47;;;6.00;;
7116;SDS011;3600;48.568;7.870;2022-12-28T01:33:45;7.40;;;5.83;;
7116;SDS011;3600;48.568;7.870;2022-12-28T01:36:14;6.13;;;5.30;;
7116;SDS011;3600;48.568;7.870;2022-12-28T01:38:42;6.73;;;4.90;;
7116;SDS011;3600;48.568;7.870;2022-12-28T01:41:11;6.77;;;5.07;;
7116;SDS011;3600;48.568;7.870;2022-12-28T01:43:41;7.83;;;5.27;;
7116;SDS011;3600;48.568;7.870;2022-12-28T01:46:17;6.43;;;4.87;;
7116;SDS011;3600;48.568;7.870;2022-12-28T01:49:10;6.10;;;4.83;;
7116;SDS011;3600;48.568;7.870;2022-12-28T01:51:43;7.27;;;4.80;;
7116;SDS011;3600;48.568;7.870;2022-12-28T01:54:21;5.93;;;4.30;;
7116;SDS011;3600;48.568;7.870;2022-12-28T01:56:50;4.70;;;4.20;;
7116;SDS011;3600;48.568;7.870;2022-12-28T01:59:17;6.50;;;4.77;;
7116;SDS011;3600;48.568;7.870;2022-12-28T02:01:47;5.17;;;4.50;;
7116;SDS011;3600;48.568;7.870;2022-12-28T02:04:14;5.87;;;4.00;;
7116;SDS011;3600;48.568;7.870;2022-12-28T02:06:41;5.17;;;4.50;;
7116;SDS011;3600;48.568;7.870;2022-12-28T02:09:09;4.63;;;4.00;;
7116;SDS011;3600;48.568;7.870;2022-12-28T02:11:42;4.23;;;3.83;;
7116;SDS011;3600;48.568;7.870;2022-12-28T02:14:10;6.00;;;3.87;;
7116;SDS011;3600;48.568;7.870;2022-12-28T02:16:38;4.80;;;4.03;;
7116;SDS011;3600;48.568;7.870;2022-12-28T02:19:06;4.80;;;4.30;;
7116;SDS011;3600;48.568;7.870;2022-12-28T02:31:04;5.10;;;3.97;;
7116;SDS011;3600;48.568;7.870;2022-12-28T02:33:45;4.83;;;3.80;;
7116;SDS011;3600;48.568;7.870;2022-12-28T02:36:21;5.00;;;4.13;;
7116;SDS011;3600;48.568;7.870;2022-12-28T02:39:11;4.13;;;3.73;;
7116;SDS011;3600;48.568;7.870;2022-12-28T02:42:03;4.23;;;3.80;;
7116;SDS011;3600;48.568;7.870;2022-12-28T02:44:31;4.23;;;3.73;;
7116;SDS011;3600;48.568;7.870;2022-12-28T02:47:16;4.13;;;3.80;;
7116;SDS011;3600;48.568;7.870;2022-12-28T02:50:02;4.37;;;3.83;;
7116;SDS011;3600;48.568;7.870;2022-12-28T03:09:03;4.10;;;3.70;;
7116;SDS011;3600;48.568;7.870;2022-12-28T03:12:00;3.67;;;3.37;;
7116;SDS011;3600;48.568;7.870;2022-12-28T03:14:49;3.73;;;3.20;;
7116;SDS011;3600;48.568;7.870;2022-12-28T03:17:25;4.83;;;3.43;;
7116;SDS011;3600;48.568;7.870;2022-12-28T03:20:22;4.97;;;3.43;;
7116;SDS011;3600;48.568;7.870;2022-12-28T03:23:10;3.33;;;3.03;;
7116;SDS011;3600;48.568;7.870;2022-12-28T03:25:59;3.40;;;3.10;;
7116;SDS011;3600;48.568;7.870;2022-12-28T03:28:48;4.07;;;3.10;;
7116;SDS011;3600;48.568;7.870;2022-12-28T03:31:35;3.30;;;3.00;;
7116;SDS011;3600;48.568;7.870;2022-12-28T03:34:03;3.70;;;3.40;;
7116;SDS011;3600;48.568;7.870;2022-12-28T03:36:39;4.60;;;3.13;;
7116;SDS011;3600;48.568;7.870;2022-12-28T03:42:15;3.93;;;3.20;;
7116;SDS011;3600;48.568;7.870;2022-12-28T03:48:12;4.07;;;2.90;;
7116;SDS011;3600;48.568;7.870;2022-12-28T03:50:42;3.40;;;2.77;;
7116;SDS011;3600;48.568;7.870;2022-12-28T03:53:10;4.23;;;2.40;;
7116;SDS011;3600;48.568;7.870;2022-12-28T03:55:37;4.00;;;2.47;;
7116;SDS011;3600;48.568;7.870;2022-12-28T03:58:05;4.23;;;2.83;;
7116;SDS011;3600;48.568;7.870;2022-12-28T04:00:32;4.40;;;2.73;;
7116;SDS011;3600;48.568;7.870;2022-12-28T04:02:59;3.70;;;2.13;;
7116;SDS011;3600;48.568;7.870;2022-12-28T04:05:26;2.50;;;2.30;;
7116;SDS011;3600;48.568;7.870;2022-12-28T04:07:52;3.20;;;2.23;;
7116;SDS011;3600;48.568;7.870;2022-12-28T04:10:19;4.30;;;2.20;;
7116;SDS011;3600;48.568;7.870;2022-12-28T04:12:46;2.87;;;2.00;;
7116;SDS011;3600;48.568;7.870;2022-12-28T04:15:12;2.23;;;1.67;;
7116;SDS011;3600;48.568;7.870;2022-12-28T04:17:39;4.47;;;2.37;;
7116;SDS011;3600;48.568;7.870;2022-12-28T04:20:06;2.10;;;1.93;;
7116;SDS011;3600;48.568;7.870;2022-12-28T04:22:33;2.53;;;2.20;;
7116;SDS011;3600;48.568;7.870;2022-12-28T04:25:00;1.77;;;1.67;;
7116;SDS011;3600;48.568;7.870;2022-12-28T04:27:26;3.73;;;2.40;;
7116;SDS011;3600;48.568;7.870;2022-12-28T04:29:53;1.60;;;1.50;;
7116;SDS011;3600;48.568;7.870;2022-12-28T04:32:20;2.43;;;1.47;;
7116;SDS011;3600;48.568;7.870;2022-12-28T04:34:47;1.53;;;1.43;;
7116;SDS011;3600;48.568;7.870;2022-12-28T04:37:14;2.53;;;1.57;;
7116;SDS011;3600;48.568;7.870;2022-12-28T04:39:54;2.60;;;1.57;;
7116;SDS011;3600;48.568;7.870;2022-12-28T04:42:23;1.47;;;1.37;;
7116;SDS011;3600;48.568;7.870;2022-12-28T04:44:50;1.20;;;1.20;;
7116;SDS011;3600;48.568;7.870;2022-12-28T04:47:17;1.50;;;1.27;;
7116;SDS011;3600;48.568;7.870;2022-12-28T04:49:44;3.40;;;1.63;;
7116;SDS011;3600;48.568;7.870;2022-12-28T04:52:11;3.00;;;1.40;;
7116;SDS011;3600;48.568;7.870;2022-12-28T04:54:38;2.60;;;1.40;;
7116;SDS011;3600;48.568;7.870;2022-12-28T04:57:04;1.73;;;1.27;;
7116;SDS011;3600;48.568;7.870;2022-12-28T04:59:32;1.13;;;1.00;;
7116;SDS011;3600;48.568;7.870;2022-12-28T05:01:58;1.10;;;1.00;;
7116;SDS011;3600;48.568;7.870;2022-12-28T05:04:25;0.90;;;0.87;;
7116;SDS011;3600;48.568;7.870;2022-12-28T05:06:52;0.80;;;0.80;;
7116;SDS011;3600;48.568;7.870;2022-12-28T05:09:19;1.47;;;1.13;;
7116;SDS011;3600;48.568;7.870;2022-12-28T05:11:46;0.80;;;0.80;;
7116;SDS011;3600;48.568;7.870;2022-12-28T05:14:12;0.83;;;0.77;;
7116;SDS011;3600;48.568;7.870;2022-12-28T05:16:40;1.07;;;0.70;;
7116;SDS011;3600;48.568;7.870;2022-12-28T05:19:07;1.63;;;1.03;;
7116;SDS011;3600;48.568;7.870;2022-12-28T05:21:33;2.20;;;1.13;;
7116;SDS011;3600;48.568;7.870;2022-12-28T05:24:00;0.97;;;0.80;;
7116;SDS011;3600;48.568;7.870;2022-12-28T05:26:27;2.07;;;1.10;;
7116;SDS011;3600;48.568;7.870;2022-12-28T05:28:55;1.00;;;0.87;;
7116;SDS011;3600;48.568;7.870;2022-12-28T05:31:24;1.90;;;0.80;;
7116;SDS011;3600;48.568;7.870;2022-12-28T05:33:52;1.87;;;0.90;;
7116;SDS011;3600;48.568;7.870;2022-12-28T05:36:20;2.30;;;1.23;;
7116;SDS011;3600;48.568;7.870;2022-12-28T05:38:49;1.73;;;1.27;;
7116;SDS011;3600;48.568;7.870;2022-12-28T05:41:18;1.40;;;1.17;;
7116;SDS011;3600;48.568;7.870;2022-12-28T05:43:50;1.30;;;1.20;;
7116;SDS011;3600;48.568;7.870;2022-12-28T05:46:18;1.30;;;1.20;;
7116;SDS011;3600;48.568;7.870;2022-12-28T05:48:46;1.67;;;1.30;;
7116;SDS011;3600;48.568;7.870;2022-12-28T05:51:15;1.87;;;1.30;;
7116;SDS011;3600;48.568;7.870;2022-12-28T05:53:43;1.73;;;1.20;;
7116;SDS011;3600;48.568;7.870;2022-12-28T05:56:20;1.43;;;0.83;;
7116;SDS011;3600;48.568;7.870;2022-12-28T05:58:53;1.77;;;1.00;;
7116;SDS011;3600;48.568;7.870;2022-12-28T06:01:25;1.17;;;1.10;;
7116;SDS011;3600;48.568;7.870;2022-12-28T06:04:05;0.63;;;0.63;;
7116;SDS011;3600;48.568;7.870;2022-12-28T06:06:34;0.83;;;0.73;;
7116;SDS011;3600;48.568;7.870;2022-12-28T06:09:01;1.70;;;1.00;;
7116;SDS011;3600;48.568;7.870;2022-12-28T06:11:29;1.17;;;1.07;;
7116;SDS011;3600;48.568;7.870;2022-12-28T06:13:56;0.70;;;0.70;;
7116;SDS011;3600;48.568;7.870;2022-12-28T06:16:24;1.63;;;0.77;;
7116;SDS011;3600;48.568;7.870;2022-12-28T06:18:55;1.23;;;1.00;;
7116;SDS011;3600;48.568;7.870;2022-12-28T06:21:26;0.73;;;0.70;;
7116;SDS011;3600;48.568;7.870;2022-12-28T06:23:55;1.00;;;0.80;;
7116;SDS011;3600;48.568;7.870;2022-12-28T06:26:24;1.90;;;0.90;;
7116;SDS011;3600;48.568;7.870;2022-12-28T06:28:53;0.90;;;0.90;;
7116;SDS011;3600;48.568;7.870;2022-12-28T06:31:21;0.57;;;0.57;;
7116;SDS011;3600;48.568;7.870;2022-12-28T06:33:50;0.90;;;0.90;;
7116;SDS011;3600;48.568;7.870;2022-12-28T06:36:23;1.90;;;1.20;;
7116;SDS011;3600;48.568;7.870;2022-12-28T06:38:55;8.07;;;5.10;;
7116;SDS011;3600;48.568;7.870;2022-12-28T06:41:24;13.13;;;9.43;;
7116;SDS011;3600;48.568;7.870;2022-12-28T06:43:51;7.20;;;6.43;;
7116;SDS011;3600;48.568;7.870;2022-12-28T06:46:19;7.27;;;6.30;;
7116;SDS011;3600;48.568;7.870;2022-12-28T06:48:47;5.60;;;4.63;;
7116;SDS011;3600;48.568;7.870;2022-12-28T06:51:18;2.70;;;2.50;;
7116;SDS011;3600;48.568;7.870;2022-12-28T06:53:47;2.83;;;1.90;;
7116;SDS011;3600;48.568;7.870;2022-12-28T06:56:16;2.57;;;1.40;;
7116;SDS011;3600;48.568;7.870;2022-12-28T06:58:47;2.97;;;1.30;;
7116;SDS011;3600;48.568;7.870;2022-12-28T07:03:44;1.77;;;1.67;;
7116;SDS011;3600;48.568;7.870;2022-12-28T07:06:12;3.83;;;1.70;;
7116;SDS011;3600;48.568;7.870;2022-12-28T07:08:41;3.90;;;1.47;;
7116;SDS011;3600;48.568;7.870;2022-12-28T07:11:10;2.40;;;1.27;;
7116;SDS011;3600;48.568;7.870;2022-12-28T07:13:46;1.47;;;1.37;;
7116;SDS011;3600;48.568;7.870;2022-12-28T07:16:14;1.33;;;1.20;;
7116;SDS011;3600;48.568;7.870;2022-12-28T07:18:43;1.80;;;1.40;;
7116;SDS011;3600;48.568;7.870;2022-12-28T07:21:16;3.33;;;1.27;;
7116;SDS011;3600;48.568;7.870;2022-12-28T07:23:46;1.43;;;1.20;;
7116;SDS011;3600;48.568;7.870;2022-12-28T07:26:15;2.83;;;1.40;;
7116;SDS011;3600;48.568;7.870;2022-12-28T07:28:43;1.20;;;1.10;;
7116;SDS011;3600;48.568;7.870;2022-12-28T07:31:15;0.90;;;0.90;;
7116;SDS011;3600;48.568;7.870;2022-12-28T07:33:44;1.90;;;1.07;;
7116;SDS011;3600;48.568;7.870;2022-12-28T07:36:12;2.20;;;1.43;;
7116;SDS011;3600;48.568;7.870;2022-12-28T07:38:42;0.90;;;0.90;;
7116;SDS011;3600;48.568;7.870;2022-12-28T07:41:10;3.07;;;1.57;;
7116;SDS011;3600;48.568;7.870;2022-12-28T07:43:40;1.50;;;1.40;;
7116;SDS011;3600;48.568;7.870;2022-12-28T07:46:09;1.73;;;1.40;;
7116;SDS011;3600;48.568;7.870;2022-12-28T07:48:47;1.97;;;1.37;;
7116;SDS011;3600;48.568;7.870;2022-12-28T07:53:43;1.37;;;1.20;;
7116;SDS011;3600;48.568;7.870;2022-12-28T07:56:11;1.67;;;1.40;;
7116;SDS011;3600;48.568;7.870;2022-12-28T07:58:39;1.47;;;0.97;;
7116;SDS011;3600;48.568;7.870;2022-12-28T08:01:09;1.57;;;1.13;;
7116;SDS011;3600;48.568;7.870;2022-12-28T08:03:39;0.80;;;0.80;;
7116;SDS011;3600;48.568;7.870;2022-12-28T08:06:14;2.63;;;1.17;;
7116;SDS011;3600;48.568;7.870;2022-12-28T08:08:45;3.03;;;1.20;;
7116;SDS011;3600;48.568;7.870;2022-12-28T08:11:14;1.33;;;1.13;;
7116;SDS011;3600;48.568;7.870;2022-12-28T08:13:44;3.03;;;1.43;;
7116;SDS011;3600;48.568;7.870;2022-12-28T08:16:13;1.90;;;1.10;;
7116;SDS011;3600;48.568;7.870;2022-12-28T08:18:41;1.43;;;1.20;;
7116;SDS011;3600;48.568;7.870;2022-12-28T08:21:12;3.60;;;1.20;;
7116;SDS011;3600;48.568;7.870;2022-12-28T08:23:41;0.93;;;0.90;;
7116;SDS011;3600;48.568;7.870;2022-12-28T08:26:09;2.73;;;1.30;;
7116;SDS011;3600;48.568;7.870;2022-12-28T08:28:38;1.40;;;1.20;;
7116;SDS011;3600;48.568;7.870;2022-12-28T08:31:06;1.70;;;1.20;;
7116;SDS011;3600;48.568;7.870;2022-12-28T08:33:35;1.30;;;1.00;;
7116;SDS011;3600;48.568;7.870;2022-12-28T08:36:02;1.20;;;0.97;;
7116;SDS011;3600;48.568;7.870;2022-12-28T08:38:30;3.00;;;1.57;;
7116;SDS011;3600;48.568;7.870;2022-12-28T08:40:59;1.73;;;1.00;;
7116;SDS011;3600;48.568;7.870;2022-12-28T08:43:27;1.87;;;1.20;;
7116;SDS011;3600;48.568;7.870;2022-12-28T08:45:59;2.00;;;1.00;;
7116;SDS011;3600;48.568;7.870;2022-12-28T08:48:31;1.07;;;1.00;;
7116;SDS011;3600;48.568;7.870;2022-12-28T08:50:59;2.17;;;1.23;;
7116;SDS011;3600;48.568;7.870;2022-12-28T08:53:27;2.10;;;1.23;;
7116;SDS011;3600;48.568;7.870;2022-12-28T08:55:54;1.93;;;1.20;;
7116;SDS011;3600;48.568;7.870;2022-12-28T08:58:27;1.70;;;1.33;;
7116;SDS011;3600;48.568;7.870;2022-12-28T09:00:54;2.43;;;1.20;;
7116;SDS011;3600;48.568;7.870;2022-12-28T09:03:21;1.33;;;1.23;;
7116;SDS011;3600;48.568;7.870;2022-12-28T09:05:48;1.70;;;1.37;;
7116;SDS011;3600;48.568;7.870;2022-12-28T09:08:19;1.63;;;1.53;;
7116;SDS011;3600;48.568;7.870;2022-12-28T09:10:46;1.50;;;1.20;;
7116;SDS011;3600;48.568;7.870;2022-12-28T09:13:13;1.40;;;1.20;;
7116;SDS011;3600;48.568;7.870;2022-12-28T09:15:39;2.03;;;1.50;;
7116;SDS011;3600;48.568;7.870;2022-12-28T09:18:06;1.77;;;1.23;;
7116;SDS011;3600;48.568;7.870;2022-12-28T09:20:33;2.30;;;1.40;;
7116;SDS011;3600;48.568;7.870;2022-12-28T09:23:00;2.80;;;1.40;;
7116;SDS011;3600;48.568;7.870;2022-12-28T09:25:27;1.73;;;1.47;;
7116;SDS011;3600;48.568;7.870;2022-12-28T09:27:53;3.23;;;1.40;;
7116;SDS011;3600;48.568;7.870;2022-12-28T09:30:24;1.57;;;1.20;;
7116;SDS011;3600;48.568;7.870;2022-12-28T09:32:52;1.40;;;1.30;;
7116;SDS011;3600;48.568;7.870;2022-12-28T09:35:39;2.90;;;1.50;;
7116;SDS011;3600;48.568;7.870;2022-12-28T09:38:06;3.53;;;1.70;;
7116;SDS011;3600;48.568;7.870;2022-12-28T09:40:33;1.83;;;1.43;;
7116;SDS011;3600;48.568;7.870;2022-12-28T09:43:01;1.70;;;1.57;;
7116;SDS011;3600;48.568;7.870;2022-12-28T09:45:29;1.70;;;1.53;;
7116;SDS011;3600;48.568;7.870;2022-12-28T09:47:59;2.23;;;1.67;;
7116;SDS011;3600;48.568;7.870;2022-12-28T09:50:35;2.13;;;1.90;;
7116;SDS011;3600;48.568;7.870;2022-12-28T09:55:56;2.07;;;1.43;;
7116;SDS011;3600;48.568;7.870;2022-12-28T09:58:24;2.37;;;1.33;;
7116;SDS011;3600;48.568;7.870;2022-12-28T10:00:52;2.60;;;1.47;;
7116;SDS011;3600;48.568;7.870;2022-12-28T10:06:03;1.50;;;1.40;;
7116;SDS011;3600;48.568;7.870;2022-12-28T10:08:36;3.17;;;1.03;;
7116;SDS011;3600;48.568;7.870;2022-12-28T10:11:23;1.60;;;1.37;;
7116;SDS011;3600;48.568;7.870;2022-12-28T10:13:57;2.40;;;1.30;;
7116;SDS011;3600;48.568;7.870;2022-12-28T10:16:26;2.60;;;1.07;;
7116;SDS011;3600;48.568;7.870;2022-12-28T10:18:57;1.10;;;1.00;;
7116;SDS011;3600;48.568;7.870;2022-12-28T10:21:26;1.13;;;1.10;;
7116;SDS011;3600;48.568;7.870;2022-12-28T10:23:58;2.63;;;1.30;;
7116;SDS011;3600;48.568;7.870;2022-12-28T10:26:46;1.30;;;1.20;;
7116;SDS011;3600;48.568;7.870;2022-12-28T10:29:17;2.03;;;1.30;;
7116;SDS011;3600;48.568;7.870;2022-12-28T10:32:04;2.03;;;1.40;;
7116;SDS011;3600;48.568;7.870;2022-12-28T10:34:35;1.40;;;1.30;;
7116;SDS011;3600;48.568;7.870;2022-12-28T10:37:03;1.47;;;1.20;;
7116;SDS011;3600;48.568;7.870;2022-12-28T10:39:31;2.87;;;1.50;;
7116;SDS011;3600;48.568;7.870;2022-12-28T10:41:58;1.80;;;0.97;;
7116;SDS011;3600;48.568;7.870;2022-12-28T10:47:05;2.10;;;1.47;;
7116;SDS011;3600;48.568;7.870;2022-12-28T10:49:53;4.03;;;2.27;;
7116;SDS011;3600;48.568;7.870;2022-12-28T10:52:40;2.13;;;1.73;;
7116;SDS011;3600;48.568;7.870;2022-12-28T10:55:26;3.43;;;1.50;;
7116;SDS011;3600;48.568;7.870;2022-12-28T11:01:15;3.63;;;1.47;;
7116;SDS011;3600;48.568;7.870;2022-12-28T11:06:22;2.83;;;1.57;;
7116;SDS011;3600;48.568;7.870;2022-12-28T11:11:39;2.67;;;1.13;;
7116;SDS011;3600;48.568;7.870;2022-12-28T11:16:51;9.87;;;1.73;;
7116;SDS011;3600;48.568;7.870;2022-12-28T11:19:19;2.40;;;1.60;;
7116;SDS011;3600;48.568;7.870;2022-12-28T11:21:46;4.93;;;2.33;;
7116;SDS011;3600;48.568;7.870;2022-12-28T11:24:15;4.50;;;1.53;;
7116;SDS011;3600;48.568;7.870;2022-12-28T11:26:43;2.03;;;1.33;;
7116;SDS011;3600;48.568;7.870;2022-12-28T11:29:13;1.83;;;1.10;;
7116;SDS011;3600;48.568;7.870;2022-12-28T11:31:44;2.70;;;1.20;;
7116;SDS011;3600;48.568;7.870;2022-12-28T11:34:19;1.63;;;1.03;;
7116;SDS011;3600;48.568;7.870;2022-12-28T11:36:51;1.10;;;0.90;;
7116;SDS011;3600;48.568;7.870;2022-12-28T11:41:51;1.40;;;1.07;;
7116;SDS011;3600;48.568;7.870;2022-12-28T11:44:47;3.23;;;1.10;;
7116;SDS011;3600;48.568;7.870;2022-12-28T11:47:20;1.30;;;1.07;;
7116;SDS011;3600;48.568;7.870;2022-12-28T11:49:53;1.47;;;0.90;;
7116;SDS011;3600;48.568;7.870;2022-12-28T11:54:56;2.00;;;1.40;;
7116;SDS011;3600;48.568;7.870;2022-12-28T12:03:04;1.30;;;1.20;;
7116;SDS011;3600;48.568;7.870;2022-12-28T12:10:37;2.23;;;1.07;;
7116;SDS011;3600;48.568;7.870;2022-12-28T12:15:51;1.80;;;0.90;;
7116;SDS011;3600;48.568;7.870;2022-12-28T12:18:23;5.03;;;1.57;;
7116;SDS011;3600;48.568;7.870;2022-12-28T12:20:54;1.57;;;1.07;;
7116;SDS011;3600;48.568;7.870;2022-12-28T12:26:29;1.30;;;1.20;;
7116;SDS011;3600;48.568;7.870;2022-12-28T12:29:22;0.83;;;0.83;;
7116;SDS011;3600;48.568;7.870;2022-12-28T12:32:06;1.43;;;1.00;;
7116;SDS011;3600;48.568;7.870;2022-12-28T12:46:22;1.80;;;1.30;;
7116;SDS011;3600;48.568;7.870;2022-12-28T12:49:12;1.77;;;1.03;;
7116;SDS011;3600;48.568;7.870;2022-12-28T12:51:59;2.93;;;1.17;;
7116;SDS011;3600;48.568;7.870;2022-12-28T12:57:23;2.67;;;0.90;;
7116;SDS011;3600;48.568;7.870;2022-12-28T13:02:46;1.23;;;0.90;;
7116;SDS011;3600;48.568;7.870;2022-12-28T13:05:35;2.07;;;1.10;;
7116;SDS011;3600;48.568;7.870;2022-12-28T13:08:06;1.27;;;0.80;;
7116;SDS011;3600;48.568;7.870;2022-12-28T13:10:48;2.00;;;1.13;;
7116;SDS011;3600;48.568;7.870;2022-12-28T13:13:17;1.30;;;0.97;;
7116;SDS011;3600;48.568;7.870;2022-12-28T13:15:54;1.17;;;1.07;;
7116;SDS011;3600;48.568;7.870;2022-12-28T13:18:27;1.13;;;1.03;;
7116;SDS011;3600;48.568;7.870;2022-12-28T13:21:15;2.23;;;1.23;;
7116;SDS011;3600;48.568;7.870;2022-12-28T13:23:45;1.30;;;1.20;;
7116;SDS011;3600;48.568;7.870;2022-12-28T13:26:13;2.43;;;1.30;;
7116;SDS011;3600;48.568;7.870;2022-12-28T13:28:50;1.97;;;1.20;;
7116;SDS011;3600;48.568;7.870;2022-12-28T13:31:32;5.80;;;1.20;;
7116;SDS011;3600;48.568;7.870;2022-12-28T13:36:49;1.20;;;1.10;;
7116;SDS011;3600;48.568;7.870;2022-12-28T13:39:19;2.10;;;1.37;;
7116;SDS011;3600;48.568;7.870;2022-12-28T13:41:47;1.20;;;1.10;;
7116;SDS011;3600;48.568;7.870;2022-12-28T13:44:22;1.17;;;0.95;;
7116;SDS011;3600;48.568;7.870;2022-12-28T13:47:16;4.40;;;0.97;;
7116;SDS011;3600;48.568;7.870;2022-12-28T13:49:58;1.55;;;0.90;;
7116;SDS011;3600;48.568;7.870;2022-12-28T13:52:44;1.30;;;1.13;;
7116;SDS011;3600;48.568;7.870;2022-12-28T13:55:36;0.95;;;0.82;;
7116;SDS011;3600;48.568;7.870;2022-12-28T13:58:15;1.23;;;1.00;;
7116;SDS011;3600;48.568;7.870;2022-12-28T14:00:45;2.60;;;1.10;;
7116;SDS011;3600;48.568;7.870;2022-12-28T14:03:15;1.90;;;1.23;;
7116;SDS011;3600;48.568;7.870;2022-12-28T14:05:47;1.95;;;1.20;;
7116;SDS011;3600;48.568;7.870;2022-12-28T14:08:17;2.15;;;1.00;;
7116;SDS011;3600;48.568;7.870;2022-12-28T14:10:44;1.93;;;1.30;;
7116;SDS011;3600;48.568;7.870;2022-12-28T14:13:12;2.10;;;1.03;;
7116;SDS011;3600;48.568;7.870;2022-12-28T14:15:40;1.37;;;1.20;;
7116;SDS011;3600;48.568;7.870;2022-12-28T14:18:07;1.33;;;1.13;;
7116;SDS011;3600;48.568;7.870;2022-12-28T14:20:49;1.20;;;1.10;;
7116;SDS011;3600;48.568;7.870;2022-12-28T14:23:25;2.03;;;1.03;;
7116;SDS011;3600;48.568;7.870;2022-12-28T14:25:57;1.60;;;0.90;;
7116;SDS011;3600;48.568;7.870;2022-12-28T14:28:33;3.55;;;0.85;;
7116;SDS011;3600;48.568;7.870;2022-12-28T14:31:53;1.43;;;0.90;;
7116;SDS011;3600;48.568;7.870;2022-12-28T14:34:18;1.93;;;1.10;;
7116;SDS011;3600;48.568;7.870;2022-12-28T14:36:49;1.80;;;1.17;;
7116;SDS011;3600;48.568;7.870;2022-12-28T14:41:56;1.23;;;1.10;;
7116;SDS011;3600;48.568;7.870;2022-12-28T14:44:48;1.67;;;1.20;;
7116;SDS011;3600;48.568;7.870;2022-12-28T14:47:35;1.23;;;0.97;;
7116;SDS011;3600;48.568;7.870;2022-12-28T14:50:17;1.90;;;1.20;;
7116;SDS011;3600;48.568;7.870;2022-12-28T14:52:49;1.93;;;1.00;;
7116;SDS011;3600;48.568;7.870;2022-12-28T14:55:30;1.53;;;1.17;;
7116;SDS011;3600;48.568;7.870;2022-12-28T14:58:01;1.43;;;0.73;;
7116;SDS011;3600;48.568;7.870;2022-12-28T15:00:34;0.80;;;0.77;;
7116;SDS011;3600;48.568;7.870;2022-12-28T15:05:52;1.00;;;0.77;;
7116;SDS011;3600;48.568;7.870;2022-12-28T15:08:21;0.90;;;0.90;;
7116;SDS011;3600;48.568;7.870;2022-12-28T15:10:49;1.20;;;0.70;;
7116;SDS011;3600;48.568;7.870;2022-12-28T15:13:22;0.90;;;0.90;;
7116;SDS011;3600;48.568;7.870;2022-12-28T15:18:21;1.20;;;1.10;;
7116;SDS011;3600;48.568;7.870;2022-12-28T15:20:48;3.90;;;1.07;;
7116;SDS011;3600;48.568;7.870;2022-12-28T15:23:15;1.50;;;1.00;;
7116;SDS011;3600;48.568;7.870;2022-12-28T15:25:42;0.97;;;0.97;;
7116;SDS011;3600;48.568;7.870;2022-12-28T15:28:09;1.43;;;1.33;;
7116;SDS011;3600;48.568;7.870;2022-12-28T15:30:40;1.63;;;0.87;;
7116;SDS011;3600;48.568;7.870;2022-12-28T15:33:08;6.47;;;1.20;;
7116;SDS011;3600;48.568;7.870;2022-12-28T15:35:35;1.50;;;1.10;;
7116;SDS011;3600;48.568;7.870;2022-12-28T15:38:02;3.37;;;1.30;;
7116;SDS011;3600;48.568;7.870;2022-12-28T15:40:29;1.33;;;1.20;;
7116;SDS011;3600;48.568;7.870;2022-12-28T15:42:56;1.58;;;1.30;;
7116;SDS011;3600;48.568;7.870;2022-12-28T15:45:23;2.60;;;1.70;;
7116;SDS011;3600;48.568;7.870;2022-12-28T15:47:52;2.77;;;1.70;;
7116;SDS011;3600;48.568;7.870;2022-12-28T15:50:20;1.60;;;1.50;;
7116;SDS011;3600;48.568;7.870;2022-12-28T15:52:47;2.57;;;1.70;;
7116;SDS011;3600;48.568;7.870;2022-12-28T15:55:14;4.13;;;1.40;;
7116;SDS011;3600;48.568;7.870;2022-12-28T15:57:42;1.60;;;1.47;;
7116;SDS011;3600;48.568;7.870;2022-12-28T16:00:14;2.47;;;1.33;;
7116;SDS011;3600;48.568;7.870;2022-12-28T16:02:45;2.20;;;1.60;;
7116;SDS011;3600;48.568;7.870;2022-12-28T16:05:12;2.93;;;1.50;;
7116;SDS011;3600;48.568;7.870;2022-12-28T16:07:39;2.90;;;1.60;;
7116;SDS011;3600;48.568;7.870;2022-12-28T16:10:06;1.40;;;1.20;;
7116;SDS011;3600;48.568;7.870;2022-12-28T16:12:33;2.17;;;1.47;;
7116;SDS011;3600;48.568;7.870;2022-12-28T16:15:00;2.30;;;1.67;;
7116;SDS011;3600;48.568;7.870;2022-12-28T16:17:27;1.90;;;1.50;;
7116;SDS011;3600;48.568;7.870;2022-12-28T16:19:53;1.97;;;1.77;;
7116;SDS011;3600;48.568;7.870;2022-12-28T16:22:20;1.10;;;1.10;;
7116;SDS011;3600;48.568;7.870;2022-12-28T16:24:47;1.33;;;1.23;;
7116;SDS011;3600;48.568;7.870;2022-12-28T16:27:14;2.70;;;1.37;;
7116;SDS011;3600;48.568;7.870;2022-12-28T16:29:40;1.43;;;1.33;;
7116;SDS011;3600;48.568;7.870;2022-12-28T16:32:07;1.57;;;1.47;;
7116;SDS011;3600;48.568;7.870;2022-12-28T16:34:34;1.53;;;1.47;;
7116;SDS011;3600;48.568;7.870;2022-12-28T16:37:01;1.67;;;1.40;;
7116;SDS011;3600;48.568;7.870;2022-12-28T16:39:28;1.40;;;1.33;;
7116;SDS011;3600;48.568;7.870;2022-12-28T16:41:55;1.43;;;1.33;;
7116;SDS011;3600;48.568;7.870;2022-12-28T16:44:23;2.90;;;1.23;;
7116;SDS011;3600;48.568;7.870;2022-12-28T16:46:52;1.97;;;1.37;;
7116;SDS011;3600;48.568;7.870;2022-12-28T16:49:24;2.23;;;1.33;;
7116;SDS011;3600;48.568;7.870;2022-12-28T16:51:51;1.50;;;1.30;;
7116;SDS011;3600;48.568;7.870;2022-12-28T16:54:19;1.33;;;1.27;;
7116;SDS011;3600;48.568;7.870;2022-12-28T16:56:48;1.33;;;1.17;;
7116;SDS011;3600;48.568;7.870;2022-12-28T16:59:17;1.57;;;1.17;;
7116;SDS011;3600;48.568;7.870;2022-12-28T17:01:46;0.97;;;0.80;;
7116;SDS011;3600;48.568;7.870;2022-12-28T17:04:13;1.00;;;0.90;;
7116;SDS011;3600;48.568;7.870;2022-12-28T17:06:40;3.80;;;1.23;;
7116;SDS011;3600;48.568;7.870;2022-12-28T17:09:07;0.90;;;0.90;;
7116;SDS011;3600;48.568;7.870;2022-12-28T17:11:35;1.03;;;0.80;;
7116;SDS011;3600;48.568;7.870;2022-12-28T17:14:03;1.53;;;0.90;;
7116;SDS011;3600;48.568;7.870;2022-12-28T17:16:31;1.80;;;0.80;;
7116;SDS011;3600;48.568;7.870;2022-12-28T17:18:59;0.87;;;0.87;;
7116;SDS011;3600;48.568;7.870;2022-12-28T17:21:26;1.83;;;1.00;;
7116;SDS011;3600;48.568;7.870;2022-12-28T17:23:54;1.57;;;1.10;;
7116;SDS011;3600;48.568;7.870;2022-12-28T17:26:21;1.30;;;1.00;;